sensor_id;sensor_type;location;lat;lon;timestamp;P1;durP1;ratioP1;P2;durP2;ratioP2
7205;SDS011;3644;53.480;10.004;2022-12-29T00:02:19;5.07;;;2.97;;
7205;SDS011;3644;53.480;10.004;2022-12-29T00:04:45;2.80;;;2.60;;
7205;SDS011;3644;53.480;10.004;2022-12-29T00:07:11;3.20;;;2.90;;
7205;SDS011;3644;53.480;10.004;2022-12-29T00:09:36;3.33;;;3.00;;
7205;SDS011;3644;53.480;10.004;2022-12-29T00:12:02;3.10;;;2.80;;
7205;SDS011;3644;53.480;10.004;2022-12-29T00:14:28;2.23;;;2.03;;
7205;SDS011;3644;53.480;10.004;2022-12-29T00:17:12;2.40;;;2.30;;
7205;SDS011;3644;53.480;10.004;2022-12-29T00:19:39;2.87;;;2.67;;
7205;SDS011;3644;53.480;10.004;2022-12-29T00:22:23;2.97;;;2.70;;
7205;SDS011;3644;53.480;10.004;2022-12-29T00:25:08;2.70;;;2.50;;
7205;SDS011;3644;53.480;10.004;2022-12-29T00:27:53;2.93;;;2.73;;
7205;SDS011;3644;53.480;10.004;2022-12-29T00:30:38;11.50;;;3.47;;
7205;SDS011;3644;53.480;10.004;2022-12-29T00:33:22;5.20;;;2.60;;
7205;SDS011;3644;53.480;10.004;2022-12-29T00:36:12;2.77;;;2.57;;
7205;SDS011;3644;53.480;10.004;2022-12-29T00:38:45;2.83;;;2.73;;
7205;SDS011;3644;53.480;10.004;2022-12-29T00:41:33;3.40;;;3.20;;
7205;SDS011;3644;53.480;10.004;2022-12-29T00:44:17;5.70;;;3.77;;
7205;SDS011;3644;53.480;10.004;2022-12-29T00:46:42;5.67;;;4.23;;
7205;SDS011;3644;53.480;10.004;2022-12-29T00:49:09;3.73;;;3.43;;
7205;SDS011;3644;53.480;10.004;2022-12-29T00:51:55;3.27;;;3.00;;
7205;SDS011;3644;53.480;10.004;2022-12-29T00:54:25;4.20;;;3.47;;
7205;SDS011;3644;53.480;10.004;2022-12-29T00:56:51;2.80;;;2.70;;
7205;SDS011;3644;53.480;10.004;2022-12-29T00:59:18;4.53;;;2.80;;
7205;SDS011;3644;53.480;10.004;2022-12-29T01:01:43;3.10;;;2.43;;
7205;SDS011;3644;53.480;10.004;2022-12-29T01:04:10;3.60;;;3.30;;
7205;SDS011;3644;53.480;10.004;2022-12-29T01:06:36;3.73;;;3.07;;
7205;SDS011;3644;53.480;10.004;2022-12-29T01:09:04;3.40;;;3.10;;
7205;SDS011;3644;53.480;10.004;2022-12-29T01:11:49;3.93;;;2.47;;
7205;SDS011;3644;53.480;10.004;2022-12-29T01:14:15;2.57;;;2.43;;
7205;SDS011;3644;53.480;10.004;2022-12-29T01:16:42;2.40;;;2.30;;
7205;SDS011;3644;53.480;10.004;2022-12-29T01:19:07;2.70;;;2.50;;
7205;SDS011;3644;53.480;10.004;2022-12-29T01:21:33;2.47;;;2.37;;
7205;SDS011;3644;53.480;10.004;2022-12-29T01:23:58;2.97;;;2.17;;
7205;SDS011;3644;53.480;10.004;2022-12-29T01:26:24;2.80;;;2.60;;
7205;SDS011;3644;53.480;10.004;2022-12-29T01:28:49;2.67;;;2.57;;
7205;SDS011;3644;53.480;10.004;2022-12-29T01:31:15;3.40;;;2.63;;
7205;SDS011;3644;53.480;10.004;2022-12-29T01:33:41;2.97;;;2.67;;
7205;SDS011;3644;53.480;10.004;2022-12-29T01:36:08;3.80;;;3.50;;
7205;SDS011;3644;53.480;10.004;2022-12-29T01:38:36;6.87;;;2.83;;
7205;SDS011;3644;53.480;10.004;2022-12-29T01:41:02;6.00;;;3.10;;
7205;SDS011;3644;53.480;10.004;2022-12-29T01:43:38;2.40;;;2.30;;
7205;SDS011;3644;53.480;10.004;2022-12-29T01:46:04;3.10;;;2.90;;
7205;SDS011;3644;53.480;10.004;2022-12-29T01:48:51;6.20;;;2.80;;
7205;SDS011;3644;53.480;10.004;2022-12-29T01:51:24;3.20;;;3.00;;
7205;SDS011;3644;53.480;10.004;2022-12-29T01:53:52;3.13;;;2.70;;
7205;SDS011;3644;53.480;10.004;2022-12-29T01:56:20;3.07;;;2.77;;
7205;SDS011;3644;53.480;10.004;2022-12-29T01:58:48;3.03;;;2.80;;
7205;SDS011;3644;53.480;10.004;2022-12-29T02:01:17;2.60;;;2.40;;
7205;SDS011;3644;53.480;10.004;2022-12-29T02:03:44;3.97;;;3.33;;
7205;SDS011;3644;53.480;10.004;2022-12-29T02:06:11;8.53;;;3.50;;
7205;SDS011;3644;53.480;10.004;2022-12-29T02:08:41;3.33;;;3.03;;
7205;SDS011;3644;53.480;10.004;2022-12-29T02:11:08;2.97;;;2.77;;
7205;SDS011;3644;53.480;10.004;2022-12-29T02:13:34;2.90;;;2.70;;
7205;SDS011;3644;53.480;10.004;2022-12-29T02:16:07;3.50;;;3.20;;
7205;SDS011;3644;53.480;10.004;2022-12-29T02:18:45;3.57;;;2.83;;
7205;SDS011;3644;53.480;10.004;2022-12-29T02:21:41;2.90;;;2.70;;
7205;SDS011;3644;53.480;10.004;2022-12-29T02:24:35;2.90;;;2.70;;
7205;SDS011;3644;53.480;10.004;2022-12-29T02:41:08;3.10;;;2.90;;
7205;SDS011;3644;53.480;10.004;2022-12-29T02:43:54;4.17;;;3.27;;
7205;SDS011;3644;53.480;10.004;2022-12-29T02:49:06;2.40;;;2.30;;
7205;SDS011;3644;53.480;10.004;2022-12-29T02:54:48;3.07;;;2.87;;
7205;SDS011;3644;53.480;10.004;2022-12-29T02:57:15;2.67;;;2.57;;
7205;SDS011;3644;53.480;10.004;2022-12-29T02:59:41;2.23;;;2.13;;
7205;SDS011;3644;53.480;10.004;2022-12-29T03:13:11;2.50;;;2.33;;
7205;SDS011;3644;53.480;10.004;2022-12-29T03:16:13;2.47;;;2.27;;
7205;SDS011;3644;53.480;10.004;2022-12-29T03:21:18;3.10;;;2.13;;
7205;SDS011;3644;53.480;10.004;2022-12-29T03:24:10;2.63;;;2.43;;
7205;SDS011;3644;53.480;10.004;2022-12-29T03:26:36;3.03;;;2.17;;
7205;SDS011;3644;53.480;10.004;2022-12-29T03:29:02;2.20;;;2.10;;
7205;SDS011;3644;53.480;10.004;2022-12-29T03:31:32;2.03;;;1.93;;
7205;SDS011;3644;53.480;10.004;2022-12-29T03:33:58;2.07;;;1.97;;
7205;SDS011;3644;53.480;10.004;2022-12-29T03:36:30;4.63;;;2.33;;
7205;SDS011;3644;53.480;10.004;2022-12-29T03:39:06;2.47;;;2.27;;
7205;SDS011;3644;53.480;10.004;2022-12-29T03:41:37;2.20;;;2.00;;
7205;SDS011;3644;53.480;10.004;2022-12-29T03:44:08;2.43;;;2.33;;
7205;SDS011;3644;53.480;10.004;2022-12-29T03:46:34;6.73;;;2.43;;
7205;SDS011;3644;53.480;10.004;2022-12-29T03:49:00;2.23;;;2.13;;
7205;SDS011;3644;53.480;10.004;2022-12-29T03:51:25;1.77;;;1.60;;
7205;SDS011;3644;53.480;10.004;2022-12-29T03:53:51;1.93;;;1.83;;
7205;SDS011;3644;53.480;10.004;2022-12-29T03:56:16;1.93;;;1.83;;
7205;SDS011;3644;53.480;10.004;2022-12-29T03:58:42;3.70;;;1.83;;
7205;SDS011;3644;53.480;10.004;2022-12-29T04:01:07;2.10;;;2.00;;
7205;SDS011;3644;53.480;10.004;2022-12-29T04:03:33;2.07;;;1.90;;
7205;SDS011;3644;53.480;10.004;2022-12-29T04:05:58;1.93;;;1.83;;
7205;SDS011;3644;53.480;10.004;2022-12-29T04:08:24;4.00;;;1.77;;
7205;SDS011;3644;53.480;10.004;2022-12-29T04:10:50;2.53;;;1.87;;
7205;SDS011;3644;53.480;10.004;2022-12-29T04:13:15;1.77;;;1.73;;
7205;SDS011;3644;53.480;10.004;2022-12-29T04:15:42;2.90;;;1.80;;
7205;SDS011;3644;53.480;10.004;2022-12-29T04:18:09;4.43;;;2.27;;
7205;SDS011;3644;53.480;10.004;2022-12-29T04:20:34;1.97;;;1.83;;
7205;SDS011;3644;53.480;10.004;2022-12-29T04:23:19;1.80;;;1.70;;
7205;SDS011;3644;53.480;10.004;2022-12-29T04:25:45;1.80;;;1.70;;
7205;SDS011;3644;53.480;10.004;2022-12-29T04:28:12;1.70;;;1.60;;
7205;SDS011;3644;53.480;10.004;2022-12-29T04:30:38;1.60;;;1.50;;
7205;SDS011;3644;53.480;10.004;2022-12-29T04:33:03;1.83;;;1.73;;
7205;SDS011;3644;53.480;10.004;2022-12-29T04:35:29;4.17;;;1.83;;
7205;SDS011;3644;53.480;10.004;2022-12-29T04:37:54;5.00;;;1.93;;
7205;SDS011;3644;53.480;10.004;2022-12-29T04:40:20;2.30;;;2.10;;
7205;SDS011;3644;53.480;10.004;2022-12-29T04:42:45;1.50;;;1.40;;
7205;SDS011;3644;53.480;10.004;2022-12-29T04:45:11;1.90;;;1.80;;
7205;SDS011;3644;53.480;10.004;2022-12-29T04:47:36;1.87;;;1.43;;
7205;SDS011;3644;53.480;10.004;2022-12-29T04:50:02;1.93;;;1.83;;
7205;SDS011;3644;53.480;10.004;2022-12-29T04:52:28;1.80;;;1.70;;
7205;SDS011;3644;53.480;10.004;2022-12-29T04:54:53;1.90;;;1.70;;
7205;SDS011;3644;53.480;10.004;2022-12-29T04:57:19;1.60;;;1.50;;
7205;SDS011;3644;53.480;10.004;2022-12-29T04:59:44;1.77;;;1.67;;
7205;SDS011;3644;53.480;10.004;2022-12-29T05:02:10;1.90;;;1.67;;
7205;SDS011;3644;53.480;10.004;2022-12-29T05:04:35;1.70;;;1.60;;
7205;SDS011;3644;53.480;10.004;2022-12-29T05:07:01;1.00;;;1.00;;
7205;SDS011;3644;53.480;10.004;2022-12-29T05:09:26;1.53;;;1.43;;
7205;SDS011;3644;53.480;10.004;2022-12-29T05:11:52;2.23;;;2.03;;
7205;SDS011;3644;53.480;10.004;2022-12-29T05:14:17;1.77;;;1.67;;
7205;SDS011;3644;53.480;10.004;2022-12-29T05:16:43;3.00;;;1.70;;
7205;SDS011;3644;53.480;10.004;2022-12-29T05:19:08;1.63;;;1.50;;
7205;SDS011;3644;53.480;10.004;2022-12-29T05:21:34;1.60;;;1.50;;
7205;SDS011;3644;53.480;10.004;2022-12-29T05:23:59;1.40;;;1.40;;
7205;SDS011;3644;53.480;10.004;2022-12-29T05:26:25;1.47;;;1.40;;
7205;SDS011;3644;53.480;10.004;2022-12-29T05:28:51;1.23;;;1.13;;
7205;SDS011;3644;53.480;10.004;2022-12-29T05:31:16;1.73;;;1.40;;
7205;SDS011;3644;53.480;10.004;2022-12-29T05:33:42;1.73;;;1.50;;
7205;SDS011;3644;53.480;10.004;2022-12-29T05:36:08;1.47;;;1.47;;
7205;SDS011;3644;53.480;10.004;2022-12-29T05:38:34;1.53;;;1.43;;
7205;SDS011;3644;53.480;10.004;2022-12-29T05:40:59;1.50;;;1.40;;
7205;SDS011;3644;53.480;10.004;2022-12-29T05:43:25;1.50;;;1.50;;
7205;SDS011;3644;53.480;10.004;2022-12-29T05:45:51;3.67;;;1.83;;
7205;SDS011;3644;53.480;10.004;2022-12-29T05:48:17;1.80;;;1.70;;
7205;SDS011;3644;53.480;10.004;2022-12-29T05:50:42;1.73;;;1.63;;
7205;SDS011;3644;53.480;10.004;2022-12-29T05:53:12;1.83;;;1.73;;
7205;SDS011;3644;53.480;10.004;2022-12-29T05:55:37;1.10;;;1.10;;
7205;SDS011;3644;53.480;10.004;2022-12-29T05:58:03;1.57;;;1.47;;
7205;SDS011;3644;53.480;10.004;2022-12-29T06:00:29;7.10;;;1.70;;
7205;SDS011;3644;53.480;10.004;2022-12-29T06:02:54;2.43;;;1.60;;
7205;SDS011;3644;53.480;10.004;2022-12-29T06:05:19;2.40;;;1.50;;
7205;SDS011;3644;53.480;10.004;2022-12-29T06:07:45;2.80;;;1.80;;
7205;SDS011;3644;53.480;10.004;2022-12-29T06:10:11;1.37;;;1.30;;
7205;SDS011;3644;53.480;10.004;2022-12-29T06:12:37;2.53;;;1.30;;
7205;SDS011;3644;53.480;10.004;2022-12-29T06:15:03;1.40;;;1.30;;
7205;SDS011;3644;53.480;10.004;2022-12-29T06:17:29;1.60;;;1.20;;
7205;SDS011;3644;53.480;10.004;2022-12-29T06:19:54;1.30;;;1.30;;
7205;SDS011;3644;53.480;10.004;2022-12-29T06:22:20;1.60;;;1.60;;
7205;SDS011;3644;53.480;10.004;2022-12-29T06:24:45;2.00;;;1.90;;
7205;SDS011;3644;53.480;10.004;2022-12-29T06:27:10;1.80;;;1.70;;
7205;SDS011;3644;53.480;10.004;2022-12-29T06:29:36;2.40;;;1.63;;
7205;SDS011;3644;53.480;10.004;2022-12-29T06:32:02;1.70;;;1.60;;
7205;SDS011;3644;53.480;10.004;2022-12-29T06:34:28;1.73;;;1.27;;
7205;SDS011;3644;53.480;10.004;2022-12-29T06:36:54;6.27;;;1.43;;
7205;SDS011;3644;53.480;10.004;2022-12-29T06:39:19;1.43;;;1.30;;
7205;SDS011;3644;53.480;10.004;2022-12-29T06:41:45;2.77;;;1.20;;
7205;SDS011;3644;53.480;10.004;2022-12-29T06:44:10;1.27;;;1.23;;
7205;SDS011;3644;53.480;10.004;2022-12-29T06:46:36;1.10;;;1.10;;
7205;SDS011;3644;53.480;10.004;2022-12-29T06:49:01;1.50;;;1.40;;
7205;SDS011;3644;53.480;10.004;2022-12-29T06:51:27;1.40;;;1.30;;
7205;SDS011;3644;53.480;10.004;2022-12-29T06:53:52;1.70;;;1.60;;
7205;SDS011;3644;53.480;10.004;2022-12-29T06:56:18;2.40;;;1.40;;
7205;SDS011;3644;53.480;10.004;2022-12-29T06:58:43;1.60;;;1.50;;
7205;SDS011;3644;53.480;10.004;2022-12-29T07:01:09;1.37;;;1.27;;
7205;SDS011;3644;53.480;10.004;2022-12-29T07:03:34;7.00;;;2.03;;
7205;SDS011;3644;53.480;10.004;2022-12-29T07:06:00;1.50;;;1.40;;
7205;SDS011;3644;53.480;10.004;2022-12-29T07:08:25;2.07;;;1.63;;
7205;SDS011;3644;53.480;10.004;2022-12-29T07:10:51;2.97;;;1.77;;
7205;SDS011;3644;53.480;10.004;2022-12-29T07:13:16;1.33;;;1.33;;
7205;SDS011;3644;53.480;10.004;2022-12-29T07:15:42;1.87;;;1.77;;
7205;SDS011;3644;53.480;10.004;2022-12-29T07:18:07;1.80;;;1.53;;
7205;SDS011;3644;53.480;10.004;2022-12-29T07:20:33;3.03;;;1.67;;
7205;SDS011;3644;53.480;10.004;2022-12-29T07:22:58;3.57;;;2.20;;
7205;SDS011;3644;53.480;10.004;2022-12-29T07:25:24;2.00;;;1.90;;
7205;SDS011;3644;53.480;10.004;2022-12-29T07:27:49;3.03;;;2.20;;
7205;SDS011;3644;53.480;10.004;2022-12-29T07:30:15;3.70;;;3.10;;
7205;SDS011;3644;53.480;10.004;2022-12-29T07:32:40;3.57;;;3.20;;
7205;SDS011;3644;53.480;10.004;2022-12-29T07:35:06;5.23;;;2.70;;
7205;SDS011;3644;53.480;10.004;2022-12-29T07:37:32;3.83;;;1.70;;
7205;SDS011;3644;53.480;10.004;2022-12-29T07:39:59;1.77;;;1.67;;
7205;SDS011;3644;53.480;10.004;2022-12-29T07:42:25;4.13;;;1.80;;
7205;SDS011;3644;53.480;10.004;2022-12-29T07:44:51;1.40;;;1.30;;
7205;SDS011;3644;53.480;10.004;2022-12-29T07:47:17;1.77;;;1.67;;
7205;SDS011;3644;53.480;10.004;2022-12-29T07:49:42;3.27;;;1.93;;
7205;SDS011;3644;53.480;10.004;2022-12-29T07:52:08;1.90;;;1.40;;
7205;SDS011;3644;53.480;10.004;2022-12-29T07:54:33;1.30;;;1.20;;
7205;SDS011;3644;53.480;10.004;2022-12-29T07:56:59;2.63;;;1.63;;
7205;SDS011;3644;53.480;10.004;2022-12-29T07:59:25;1.50;;;1.40;;
7205;SDS011;3644;53.480;10.004;2022-12-29T08:01:51;3.57;;;2.00;;
7205;SDS011;3644;53.480;10.004;2022-12-29T08:04:16;5.10;;;2.93;;
7205;SDS011;3644;53.480;10.004;2022-12-29T08:06:42;1.87;;;1.77;;
7205;SDS011;3644;53.480;10.004;2022-12-29T08:09:07;1.80;;;1.70;;
7205;SDS011;3644;53.480;10.004;2022-12-29T08:11:33;2.00;;;1.73;;
7205;SDS011;3644;53.480;10.004;2022-12-29T08:13:58;2.20;;;2.00;;
7205;SDS011;3644;53.480;10.004;2022-12-29T08:16:24;1.63;;;1.53;;
7205;SDS011;3644;53.480;10.004;2022-12-29T08:18:49;2.30;;;1.80;;
7205;SDS011;3644;53.480;10.004;2022-12-29T08:21:15;1.90;;;1.80;;
7205;SDS011;3644;53.480;10.004;2022-12-29T08:23:40;3.00;;;1.80;;
7205;SDS011;3644;53.480;10.004;2022-12-29T08:26:06;3.13;;;2.17;;
7205;SDS011;3644;53.480;10.004;2022-12-29T08:28:32;5.70;;;2.47;;
7205;SDS011;3644;53.480;10.004;2022-12-29T08:30:58;1.70;;;1.60;;
7205;SDS011;3644;53.480;10.004;2022-12-29T08:33:26;5.47;;;3.27;;
7205;SDS011;3644;53.480;10.004;2022-12-29T08:35:52;11.33;;;4.03;;
7205;SDS011;3644;53.480;10.004;2022-12-29T08:38:24;4.67;;;2.87;;
7205;SDS011;3644;53.480;10.004;2022-12-29T08:40:51;2.03;;;1.70;;
7205;SDS011;3644;53.480;10.004;2022-12-29T08:43:16;1.80;;;1.70;;
7205;SDS011;3644;53.480;10.004;2022-12-29T08:45:43;2.13;;;1.80;;
7205;SDS011;3644;53.480;10.004;2022-12-29T08:48:08;2.83;;;2.00;;
7205;SDS011;3644;53.480;10.004;2022-12-29T08:50:34;2.00;;;1.90;;
7205;SDS011;3644;53.480;10.004;2022-12-29T08:52:59;1.47;;;1.30;;
7205;SDS011;3644;53.480;10.004;2022-12-29T08:55:25;3.00;;;1.30;;
7205;SDS011;3644;53.480;10.004;2022-12-29T08:57:50;1.67;;;1.00;;
7205;SDS011;3644;53.480;10.004;2022-12-29T09:00:17;1.20;;;1.20;;
7205;SDS011;3644;53.480;10.004;2022-12-29T09:02:42;1.60;;;1.50;;
7205;SDS011;3644;53.480;10.004;2022-12-29T09:05:08;2.90;;;1.23;;
7205;SDS011;3644;53.480;10.004;2022-12-29T09:07:34;2.87;;;1.37;;
7205;SDS011;3644;53.480;10.004;2022-12-29T09:10:00;4.40;;;1.70;;
7205;SDS011;3644;53.480;10.004;2022-12-29T09:12:26;2.83;;;1.73;;
7205;SDS011;3644;53.480;10.004;2022-12-29T09:14:51;3.60;;;1.27;;
7205;SDS011;3644;53.480;10.004;2022-12-29T09:17:17;1.30;;;1.20;;
7205;SDS011;3644;53.480;10.004;2022-12-29T09:20:01;3.63;;;1.60;;
7205;SDS011;3644;53.480;10.004;2022-12-29T09:22:26;1.00;;;1.00;;
7205;SDS011;3644;53.480;10.004;2022-12-29T09:24:52;2.37;;;1.50;;
7205;SDS011;3644;53.480;10.004;2022-12-29T09:27:17;3.10;;;1.53;;
7205;SDS011;3644;53.480;10.004;2022-12-29T09:29:43;7.13;;;1.60;;
7205;SDS011;3644;53.480;10.004;2022-12-29T09:32:08;2.20;;;1.57;;
7205;SDS011;3644;53.480;10.004;2022-12-29T09:34:34;1.37;;;1.27;;
7205;SDS011;3644;53.480;10.004;2022-12-29T09:36:59;4.00;;;1.50;;
7205;SDS011;3644;53.480;10.004;2022-12-29T09:39:25;1.63;;;1.00;;
7205;SDS011;3644;53.480;10.004;2022-12-29T09:42:07;4.80;;;1.30;;
7205;SDS011;3644;53.480;10.004;2022-12-29T09:47:24;7.33;;;1.63;;
7205;SDS011;3644;53.480;10.004;2022-12-29T09:49:55;1.30;;;1.20;;
7205;SDS011;3644;53.480;10.004;2022-12-29T09:52:26;8.63;;;1.43;;
7205;SDS011;3644;53.480;10.004;2022-12-29T09:58:04;2.70;;;1.40;;
7205;SDS011;3644;53.480;10.004;2022-12-29T10:00:42;3.27;;;1.17;;
7205;SDS011;3644;53.480;10.004;2022-12-29T10:03:14;5.30;;;1.30;;
7205;SDS011;3644;53.480;10.004;2022-12-29T10:08:31;3.87;;;2.20;;
7205;SDS011;3644;53.480;10.004;2022-12-29T10:14:03;2.20;;;1.47;;
7205;SDS011;3644;53.480;10.004;2022-12-29T10:22:20;5.13;;;1.57;;
7205;SDS011;3644;53.480;10.004;2022-12-29T10:25:17;2.93;;;1.80;;
7205;SDS011;3644;53.480;10.004;2022-12-29T10:27:49;3.03;;;1.50;;
7205;SDS011;3644;53.480;10.004;2022-12-29T10:30:15;4.93;;;1.60;;
7205;SDS011;3644;53.480;10.004;2022-12-29T10:32:46;4.87;;;1.90;;
7205;SDS011;3644;53.480;10.004;2022-12-29T10:35:24;4.27;;;1.60;;
7205;SDS011;3644;53.480;10.004;2022-12-29T10:40:42;7.40;;;1.60;;
7205;SDS011;3644;53.480;10.004;2022-12-29T10:43:31;5.80;;;1.33;;
7205;SDS011;3644;53.480;10.004;2022-12-29T10:46:12;3.33;;;1.43;;
7205;SDS011;3644;53.480;10.004;2022-12-29T10:48:40;3.63;;;1.60;;
7205;SDS011;3644;53.480;10.004;2022-12-29T10:51:10;3.03;;;1.40;;
7205;SDS011;3644;53.480;10.004;2022-12-29T10:53:45;5.13;;;1.80;;
7205;SDS011;3644;53.480;10.004;2022-12-29T10:56:28;3.63;;;1.67;;
7205;SDS011;3644;53.480;10.004;2022-12-29T10:59:23;10.20;;;1.63;;
7205;SDS011;3644;53.480;10.004;2022-12-29T11:07:29;3.87;;;1.90;;
7205;SDS011;3644;53.480;10.004;2022-12-29T11:10:14;3.20;;;1.67;;
7205;SDS011;3644;53.480;10.004;2022-12-29T11:12:41;3.90;;;1.40;;
7205;SDS011;3644;53.480;10.004;2022-12-29T11:15:25;5.90;;;2.33;;
7205;SDS011;3644;53.480;10.004;2022-12-29T11:17:52;3.80;;;1.43;;
7205;SDS011;3644;53.480;10.004;2022-12-29T11:20:28;4.60;;;2.70;;
7205;SDS011;3644;53.480;10.004;2022-12-29T11:23:03;8.03;;;1.80;;
7205;SDS011;3644;53.480;10.004;2022-12-29T11:25:30;7.27;;;3.37;;
7205;SDS011;3644;53.480;10.004;2022-12-29T11:27:57;4.60;;;1.73;;
7205;SDS011;3644;53.480;10.004;2022-12-29T11:30:26;5.63;;;1.10;;
7205;SDS011;3644;53.480;10.004;2022-12-29T11:32:54;3.50;;;1.80;;
7205;SDS011;3644;53.480;10.004;2022-12-29T11:35:39;5.07;;;1.67;;
7205;SDS011;3644;53.480;10.004;2022-12-29T11:38:16;5.20;;;1.80;;
7205;SDS011;3644;53.480;10.004;2022-12-29T11:40:45;2.90;;;1.53;;
7205;SDS011;3644;53.480;10.004;2022-12-29T11:43:18;7.10;;;1.70;;
7205;SDS011;3644;53.480;10.004;2022-12-29T11:45:51;3.57;;;1.57;;
7205;SDS011;3644;53.480;10.004;2022-12-29T11:48:19;4.17;;;2.70;;
7205;SDS011;3644;53.480;10.004;2022-12-29T11:50:53;8.00;;;2.40;;
7205;SDS011;3644;53.480;10.004;2022-12-29T11:53:21;16.60;;;2.40;;
7205;SDS011;3644;53.480;10.004;2022-12-29T11:55:57;13.43;;;2.40;;
7205;SDS011;3644;53.480;10.004;2022-12-29T11:58:32;5.17;;;3.10;;
7205;SDS011;3644;53.480;10.004;2022-12-29T12:01:05;3.00;;;2.30;;
7205;SDS011;3644;53.480;10.004;2022-12-29T12:03:40;5.20;;;2.20;;
7205;SDS011;3644;53.480;10.004;2022-12-29T12:06:13;3.97;;;2.50;;
7205;SDS011;3644;53.480;10.004;2022-12-29T12:11:13;2.70;;;1.40;;
7205;SDS011;3644;53.480;10.004;2022-12-29T12:19:31;2.70;;;1.70;;
7205;SDS011;3644;53.480;10.004;2022-12-29T12:22:02;4.43;;;2.03;;
7205;SDS011;3644;53.480;10.004;2022-12-29T12:24:37;1.40;;;1.30;;
7205;SDS011;3644;53.480;10.004;2022-12-29T12:27:13;4.60;;;1.97;;
7205;SDS011;3644;53.480;10.004;2022-12-29T12:30:11;6.37;;;1.70;;
7205;SDS011;3644;53.480;10.004;2022-12-29T12:33:02;4.87;;;1.27;;
7205;SDS011;3644;53.480;10.004;2022-12-29T12:35:33;2.63;;;1.53;;
7205;SDS011;3644;53.480;10.004;2022-12-29T12:41:37;19.23;;;2.50;;
7205;SDS011;3644;53.480;10.004;2022-12-29T12:55:33;4.53;;;1.40;;
7205;SDS011;3644;53.480;10.004;2022-12-29T12:58:09;4.23;;;1.40;;
7205;SDS011;3644;53.480;10.004;2022-12-29T13:03:36;5.83;;;1.60;;
7205;SDS011;3644;53.480;10.004;2022-12-29T13:08:48;6.93;;;1.97;;
7205;SDS011;3644;53.480;10.004;2022-12-29T13:11:53;4.20;;;1.80;;
7205;SDS011;3644;53.480;10.004;2022-12-29T13:20:29;8.00;;;1.50;;
7205;SDS011;3644;53.480;10.004;2022-12-29T13:25:59;3.00;;;1.30;;
7205;SDS011;3644;53.480;10.004;2022-12-29T13:34:37;7.43;;;2.40;;
7205;SDS011;3644;53.480;10.004;2022-12-29T13:37:12;5.63;;;2.50;;
7205;SDS011;3644;53.480;10.004;2022-12-29T13:39:42;10.57;;;1.90;;
7205;SDS011;3644;53.480;10.004;2022-12-29T13:42:17;4.23;;;1.83;;
7205;SDS011;3644;53.480;10.004;2022-12-29T13:45:00;4.33;;;2.23;;
7205;SDS011;3644;53.480;10.004;2022-12-29T13:47:31;3.07;;;1.63;;
7205;SDS011;3644;53.480;10.004;2022-12-29T13:50:02;2.70;;;1.00;;
7205;SDS011;3644;53.480;10.004;2022-12-29T13:52:39;4.50;;;1.80;;
7205;SDS011;3644;53.480;10.004;2022-12-29T13:58:00;14.77;;;2.60;;
7205;SDS011;3644;53.480;10.004;2022-12-29T14:00:27;12.13;;;2.27;;
7205;SDS011;3644;53.480;10.004;2022-12-29T14:05:44;6.60;;;2.53;;
7205;SDS011;3644;53.480;10.004;2022-12-29T14:08:27;7.23;;;2.00;;
7205;SDS011;3644;53.480;10.004;2022-12-29T14:10:52;7.63;;;2.60;;
7205;SDS011;3644;53.480;10.004;2022-12-29T14:13:19;12.80;;;2.23;;
7205;SDS011;3644;53.480;10.004;2022-12-29T14:15:53;7.83;;;2.27;;
7205;SDS011;3644;53.480;10.004;2022-12-29T14:18:23;3.80;;;1.60;;
7205;SDS011;3644;53.480;10.004;2022-12-29T14:28:55;4.47;;;1.87;;
7205;SDS011;3644;53.480;10.004;2022-12-29T14:36:34;4.40;;;1.70;;
7205;SDS011;3644;53.480;10.004;2022-12-29T14:39:01;5.23;;;2.17;;
7205;SDS011;3644;53.480;10.004;2022-12-29T14:41:40;5.43;;;1.77;;
7205;SDS011;3644;53.480;10.004;2022-12-29T14:49:20;9.97;;;2.00;;
7205;SDS011;3644;53.480;10.004;2022-12-29T14:51:48;2.10;;;1.40;;
7205;SDS011;3644;53.480;10.004;2022-12-29T14:55:02;2.30;;;1.77;;
7205;SDS011;3644;53.480;10.004;2022-12-29T14:57:04;6.00;;;2.50;;
7205;SDS011;3644;53.480;10.004;2022-12-29T14:59:32;8.33;;;2.00;;
7205;SDS011;3644;53.480;10.004;2022-12-29T15:02:00;4.37;;;1.20;;
7205;SDS011;3644;53.480;10.004;2022-12-29T15:04:32;2.50;;;1.50;;
7205;SDS011;3644;53.480;10.004;2022-12-29T15:07:00;3.87;;;2.30;;
7205;SDS011;3644;53.480;10.004;2022-12-29T15:09:35;5.43;;;2.73;;
7205;SDS011;3644;53.480;10.004;2022-12-29T15:12:51;4.47;;;2.60;;
7205;SDS011;3644;53.480;10.004;2022-12-29T15:15:01;5.57;;;2.13;;
7205;SDS011;3644;53.480;10.004;2022-12-29T15:17:41;5.23;;;2.13;;
7205;SDS011;3644;53.480;10.004;2022-12-29T15:20:27;5.23;;;1.77;;
7205;SDS011;3644;53.480;10.004;2022-12-29T15:22:55;15.37;;;6.60;;
7205;SDS011;3644;53.480;10.004;2022-12-29T15:25:22;6.00;;;3.10;;
7205;SDS011;3644;53.480;10.004;2022-12-29T15:27:52;11.73;;;4.87;;
7205;SDS011;3644;53.480;10.004;2022-12-29T15:30:22;29.20;;;12.30;;
7205;SDS011;3644;53.480;10.004;2022-12-29T15:32:48;5.70;;;2.30;;
7205;SDS011;3644;53.480;10.004;2022-12-29T15:37:54;5.87;;;2.53;;
7205;SDS011;3644;53.480;10.004;2022-12-29T15:40:22;11.93;;;2.33;;
7205;SDS011;3644;53.480;10.004;2022-12-29T15:45:41;3.40;;;1.87;;
7205;SDS011;3644;53.480;10.004;2022-12-29T15:48:10;7.60;;;1.87;;
7205;SDS011;3644;53.480;10.004;2022-12-29T15:50:42;4.43;;;2.40;;
7205;SDS011;3644;53.480;10.004;2022-12-29T15:53:11;5.77;;;2.90;;
7205;SDS011;3644;53.480;10.004;2022-12-29T15:55:41;6.87;;;2.40;;
7205;SDS011;3644;53.480;10.004;2022-12-29T15:58:19;6.37;;;1.80;;
7205;SDS011;3644;53.480;10.004;2022-12-29T16:00:51;6.53;;;2.50;;
7205;SDS011;3644;53.480;10.004;2022-12-29T16:03:18;11.20;;;2.10;;
7205;SDS011;3644;53.480;10.004;2022-12-29T16:05:52;5.90;;;2.47;;
7205;SDS011;3644;53.480;10.004;2022-12-29T16:08:36;4.60;;;2.00;;
7205;SDS011;3644;53.480;10.004;2022-12-29T16:13:52;6.20;;;1.90;;
7205;SDS011;3644;53.480;10.004;2022-12-29T16:16:20;7.57;;;3.30;;
7205;SDS011;3644;53.480;10.004;2022-12-29T16:18:51;3.87;;;1.80;;
7205;SDS011;3644;53.480;10.004;2022-12-29T16:21:33;11.90;;;3.27;;
7205;SDS011;3644;53.480;10.004;2022-12-29T16:24:01;13.80;;;2.77;;
7205;SDS011;3644;53.480;10.004;2022-12-29T16:26:31;10.83;;;4.00;;
7205;SDS011;3644;53.480;10.004;2022-12-29T16:28:58;5.83;;;2.40;;
7205;SDS011;3644;53.480;10.004;2022-12-29T16:31:34;13.33;;;2.80;;
7205;SDS011;3644;53.480;10.004;2022-12-29T16:34:21;3.23;;;2.23;;
7205;SDS011;3644;53.480;10.004;2022-12-29T16:41:50;2.83;;;1.90;;
7205;SDS011;3644;53.480;10.004;2022-12-29T16:44:20;11.97;;;2.37;;
7205;SDS011;3644;53.480;10.004;2022-12-29T16:49:35;7.30;;;2.60;;
7205;SDS011;3644;53.480;10.004;2022-12-29T16:52:13;8.33;;;2.20;;
7205;SDS011;3644;53.480;10.004;2022-12-29T16:54:44;6.30;;;2.40;;
7205;SDS011;3644;53.480;10.004;2022-12-29T16:57:19;3.90;;;2.67;;
7205;SDS011;3644;53.480;10.004;2022-12-29T16:59:58;10.90;;;2.40;;
7205;SDS011;3644;53.480;10.004;2022-12-29T17:02:27;4.03;;;1.90;;
7205;SDS011;3644;53.480;10.004;2022-12-29T17:04:54;2.60;;;2.40;;
7205;SDS011;3644;53.480;10.004;2022-12-29T17:07:24;10.13;;;2.40;;
7205;SDS011;3644;53.480;10.004;2022-12-29T17:09:51;7.93;;;3.43;;
7205;SDS011;3644;53.480;10.004;2022-12-29T17:12:19;7.17;;;3.60;;
7205;SDS011;3644;53.480;10.004;2022-12-29T17:17:30;22.10;;;7.03;;
7205;SDS011;3644;53.480;10.004;2022-12-29T17:22:44;42.30;;;16.97;;
7205;SDS011;3644;53.480;10.004;2022-12-29T17:25:18;30.03;;;14.07;;
7205;SDS011;3644;53.480;10.004;2022-12-29T17:30:34;13.43;;;5.73;;
7205;SDS011;3644;53.480;10.004;2022-12-29T17:33:04;17.67;;;6.67;;
7205;SDS011;3644;53.480;10.004;2022-12-29T17:35:33;14.50;;;6.17;;
7205;SDS011;3644;53.480;10.004;2022-12-29T17:37:59;16.30;;;7.00;;
7205;SDS011;3644;53.480;10.004;2022-12-29T17:40:28;12.73;;;4.93;;
7205;SDS011;3644;53.480;10.004;2022-12-29T17:42:56;9.07;;;4.90;;
7205;SDS011;3644;53.480;10.004;2022-12-29T17:45:24;14.63;;;5.67;;
7205;SDS011;3644;53.480;10.004;2022-12-29T17:47:52;5.37;;;3.40;;
7205;SDS011;3644;53.480;10.004;2022-12-29T17:50:19;11.70;;;4.97;;